Time;durP1;ratioP1;P1;durP2;ratioP2;P2;SDS_P1;SDS_P2;PMS_P1;PMS_P2;Temp;Humidity;BMP_temperature;BMP_pressure;BME280_temperature;BME280_humidity;BME280_pressure;Samples;Min_cycle;Max_cycle;Signal;HPM_P1;HPM_P2
2021/09/03 00:00:38;;;;;;;29.80;19.27;;;;;;;;;;5007915;28;20271;-73
2021/09/03 00:03:04;;;;;;;32.17;18.63;;;;;;;;;;5005853;28;20810;-73
2021/09/03 00:05:31;;;;;;;31.27;18.13;;;;;;;;;;5007937;28;21090;-73
2021/09/03 00:07:57;;;;;;;25.50;17.60;;;;;;;;;;5007976;28;20938;-73
2021/09/03 00:10:24;;;;;;;29.50;18.43;;;;;;;;;;5010676;28;20212;-73
2021/09/03 00:12:50;;;;;;;30.43;18.23;;;;;;;;;;5008216;28;20224;-73
2021/09/03 00:15:17;;;;;;;29.13;18.17;;;;;;;;;;5008171;28;20235;-73
2021/09/03 00:17:45;;;;;;;38.07;19.77;;;;;;;;;;5006977;28;20342;-73
2021/09/03 00:20:14;;;;;;;28.60;19.80;;;;;;;;;;5009200;28;20216;-74
2021/09/03 00:22:40;;;;;;;26.43;17.50;;;;;;;;;;5006622;28;20227;-73
2021/09/03 00:25:08;;;;;;;35.10;18.77;;;;;;;;;;5007439;28;20286;-73
2021/09/03 00:27:35;;;;;;;28.53;18.30;;;;;;;;;;5008907;28;21190;-74
2021/09/03 00:30:02;;;;;;;27.03;17.70;;;;;;;;;;5009698;28;20543;-74
2021/09/03 00:32:28;;;;;;;31.47;19.63;;;;;;;;;;5006117;28;20212;-73
2021/09/03 00:34:56;;;;;;;30.57;19.47;;;;;;;;;;5006090;28;20215;-73
2021/09/03 00:37:22;;;;;;;32.20;19.73;;;;;;;;;;5008655;28;20783;-73
2021/09/03 00:39:49;;;;;;;35.83;19.90;;;;;;;;;;5005253;28;20651;-73
2021/09/03 00:42:16;;;;;;;34.97;20.80;;;;;;;;;;5008740;28;20217;-73
2021/09/03 00:44:43;;;;;;;32.97;19.73;;;;;;;;;;5006892;28;20262;-73
2021/09/03 00:47:10;;;;;;;34.33;21.47;;;;;;;;;;5011069;28;20262;-73
2021/09/03 00:49:36;;;;;;;37.67;20.83;;;;;;;;;;5011356;28;20211;-73
2021/09/03 00:52:08;;;;;;;41.73;22.60;;;;;;;;;;5011904;28;20739;-74
2021/09/03 00:54:35;;;;;;;37.30;21.23;;;;;;;;;;5010706;28;20231;-74
2021/09/03 00:57:01;;;;;;;35.10;22.87;;;;;;;;;;5011367;28;20239;-73
2021/09/03 00:59:28;;;;;;;36.73;22.53;;;;;;;;;;5009414;28;20219;-74
2021/09/03 01:01:54;;;;;;;39.20;23.73;;;;;;;;;;5011372;28;20287;-74
2021/09/03 01:04:21;;;;;;;38.13;24.10;;;;;;;;;;5011558;28;20217;-74
2021/09/03 01:06:47;;;;;;;40.53;24.37;;;;;;;;;;5009647;28;20216;-73
2021/09/03 01:09:15;;;;;;;43.20;24.03;;;;;;;;;;5010778;28;20634;-74
2021/09/03 01:11:41;;;;;;;42.80;25.23;;;;;;;;;;5010703;28;20242;-74
2021/09/03 01:14:08;;;;;;;44.30;23.97;;;;;;;;;;5009728;28;20752;-73
2021/09/03 01:16:34;;;;;;;42.40;26.07;;;;;;;;;;5010162;28;20273;-73
2021/09/03 01:19:01;;;;;;;43.70;24.37;;;;;;;;;;5011312;28;20284;-74
2021/09/03 01:21:27;;;;;;;44.27;24.93;;;;;;;;;;5011662;28;20238;-73
2021/09/03 01:23:55;;;;;;;44.67;26.03;;;;;;;;;;5009940;28;20225;-74
2021/09/03 01:26:21;;;;;;;46.70;26.80;;;;;;;;;;5011073;28;20242;-73
2021/09/03 01:28:49;;;;;;;45.83;25.53;;;;;;;;;;5012127;28;20265;-74
2021/09/03 01:31:16;;;;;;;46.97;27.43;;;;;;;;;;5009496;28;20219;-73
2021/09/03 01:33:42;;;;;;;45.97;26.87;;;;;;;;;;5011438;28;20219;-73
2021/09/03 01:36:09;;;;;;;45.40;25.50;;;;;;;;;;5011853;28;20654;-73
2021/09/03 01:38:37;;;;;;;49.57;28.13;;;;;;;;;;5011978;28;20232;-73
2021/09/03 01:41:05;;;;;;;50.90;27.57;;;;;;;;;;5009790;28;20225;-73
2021/09/03 01:43:32;;;;;;;47.20;27.17;;;;;;;;;;5010621;28;20220;-73
2021/09/03 01:45:58;;;;;;;52.17;28.63;;;;;;;;;;5009229;28;20221;-73
2021/09/03 01:48:24;;;;;;;49.57;28.47;;;;;;;;;;5012195;28;20254;-73
2021/09/03 01:50:51;;;;;;;53.77;28.33;;;;;;;;;;5010667;28;20232;-73
2021/09/03 01:53:17;;;;;;;55.80;30.20;;;;;;;;;;5012661;28;20232;-73
2021/09/03 01:55:43;;;;;;;54.63;29.40;;;;;;;;;;5009927;28;20211;-73
2021/09/03 01:58:11;;;;;;;50.97;28.73;;;;;;;;;;5010113;28;20243;-73
2021/09/03 02:00:37;;;;;;;50.17;27.83;;;;;;;;;;5010455;28;20215;-73
2021/09/03 02:03:04;;;;;;;46.07;27.67;;;;;;;;;;5006906;28;20254;-73
2021/09/03 02:05:30;;;;;;;53.60;29.47;;;;;;;;;;5011218;28;20216;-73
2021/09/03 02:07:57;;;;;;;50.23;29.60;;;;;;;;;;5009862;28;20239;-73
2021/09/03 02:10:23;;;;;;;47.97;27.07;;;;;;;;;;5008972;28;20724;-73
2021/09/03 02:12:49;;;;;;;53.83;28.43;;;;;;;;;;5009787;28;20215;-73
2021/09/03 02:15:17;;;;;;;51.30;28.10;;;;;;;;;;5009494;28;20232;-73
2021/09/03 02:17:43;;;;;;;53.40;29.07;;;;;;;;;;5009973;28;20732;-73
2021/09/03 02:20:10;;;;;;;54.23;29.83;;;;;;;;;;5011315;28;20216;-73
2021/09/03 02:22:37;;;;;;;50.07;28.33;;;;;;;;;;5009656;28;20729;-73
2021/09/03 02:25:04;;;;;;;54.67;28.80;;;;;;;;;;5009891;28;20258;-73
2021/09/03 02:27:30;;;;;;;52.87;28.43;;;;;;;;;;5010604;28;20215;-73
2021/09/03 02:29:56;;;;;;;50.57;28.43;;;;;;;;;;5007803;28;20223;-73
2021/09/03 02:32:25;;;;;;;48.47;28.30;;;;;;;;;;5009609;28;20654;-73
2021/09/03 02:34:51;;;;;;;47.57;27.73;;;;;;;;;;5010755;28;20502;-73
2021/09/03 02:37:17;;;;;;;50.80;28.07;;;;;;;;;;5010917;28;20484;-73
2021/09/03 02:39:44;;;;;;;54.20;29.87;;;;;;;;;;5006941;28;20278;-73
2021/09/03 02:42:10;;;;;;;52.63;28.60;;;;;;;;;;5009658;28;20626;-73
2021/09/03 02:44:37;;;;;;;57.33;31.80;;;;;;;;;;5010484;28;20279;-73
2021/09/03 02:47:03;;;;;;;55.60;31.00;;;;;;;;;;5010704;28;20212;-73
2021/09/03 02:49:31;;;;;;;53.77;29.80;;;;;;;;;;5010652;28;20215;-74
2021/09/03 02:51:58;;;;;;;55.40;29.67;;;;;;;;;;5007545;28;20216;-73
2021/09/03 02:54:24;;;;;;;54.13;30.13;;;;;;;;;;5006427;28;20231;-73
2021/09/03 02:56:50;;;;;;;52.87;30.60;;;;;;;;;;5008134;28;20583;-73
2021/09/03 02:59:17;;;;;;;52.67;30.80;;;;;;;;;;5009922;28;20777;-73
2021/09/03 03:01:43;;;;;;;54.80;29.30;;;;;;;;;;5007775;28;20295;-73
2021/09/03 03:04:10;;;;;;;51.53;29.80;;;;;;;;;;5009121;28;20273;-73
2021/09/03 03:06:37;;;;;;;54.47;28.73;;;;;;;;;;5009780;28;20267;-73
2021/09/03 03:09:04;;;;;;;55.57;28.57;;;;;;;;;;5007335;28;20236;-73
2021/09/03 03:11:30;;;;;;;51.93;29.57;;;;;;;;;;5010202;28;20220;-73
2021/09/03 03:14:02;;;;;;;48.50;30.03;;;;;;;;;;5007900;28;20235;-73
2021/09/03 03:16:29;;;;;;;49.17;27.63;;;;;;;;;;5009244;28;20676;-73
2021/09/03 03:18:55;;;;;;;49.10;28.10;;;;;;;;;;5009537;28;20315;-73
2021/09/03 03:21:22;;;;;;;54.77;30.23;;;;;;;;;;5010407;28;20644;-73
2021/09/03 03:23:49;;;;;;;51.83;29.40;;;;;;;;;;5007997;28;20227;-73
2021/09/03 03:26:16;;;;;;;50.40;29.20;;;;;;;;;;5011510;28;20231;-73
2021/09/03 03:28:42;;;;;;;55.20;28.77;;;;;;;;;;5007545;28;20208;-73
2021/09/03 03:31:09;;;;;;;56.60;29.07;;;;;;;;;;5008798;28;20215;-73
2021/09/03 03:33:35;;;;;;;51.03;29.20;;;;;;;;;;5009020;28;20215;-73
2021/09/03 03:36:01;;;;;;;58.13;30.63;;;;;;;;;;5007764;28;20249;-73
2021/09/03 03:38:28;;;;;;;55.40;29.60;;;;;;;;;;5007355;28;20239;-73
2021/09/03 03:40:55;;;;;;;58.03;30.23;;;;;;;;;;5009018;28;20627;-73
2021/09/03 03:43:22;;;;;;;60.73;30.70;;;;;;;;;;5006483;28;20621;-72
2021/09/03 03:45:48;;;;;;;57.47;30.83;;;;;;;;;;5009302;28;20256;-73
2021/09/03 03:48:15;;;;;;;49.37;28.30;;;;;;;;;;5010279;28;20216;-73
2021/09/03 03:50:41;;;;;;;50.87;29.63;;;;;;;;;;5007831;28;20238;-73
2021/09/03 03:53:11;;;;;;;54.83;31.50;;;;;;;;;;5007096;28;20279;-72
2021/09/03 03:55:37;;;;;;;50.83;29.17;;;;;;;;;;5009296;28;20212;-73
2021/09/03 03:58:05;;;;;;;59.83;30.50;;;;;;;;;;5008558;28;20250;-72
2021/09/03 04:00:31;;;;;;;52.83;29.53;;;;;;;;;;5007325;28;20216;-73
2021/09/03 04:02:58;;;;;;;58.97;31.27;;;;;;;;;;5009033;28;20617;-72
2021/09/03 04:05:24;;;;;;;53.07;28.77;;;;;;;;;;5008096;28;20217;-72
2021/09/03 04:07:51;;;;;;;59.87;29.90;;;;;;;;;;5007190;28;20294;-72
2021/09/03 04:10:18;;;;;;;62.13;31.10;;;;;;;;;;5007290;28;20289;-72
2021/09/03 04:12:44;;;;;;;60.77;32.30;;;;;;;;;;5006769;28;20220;-73
2021/09/03 04:15:13;;;;;;;55.33;30.40;;;;;;;;;;5006419;28;20287;-73
2021/09/03 04:17:39;;;;;;;48.07;27.73;;;;;;;;;;5004685;28;20282;-73
2021/09/03 04:20:07;;;;;;;46.00;26.40;;;;;;;;;;5005435;28;20212;-73
2021/09/03 04:22:33;;;;;;;53.03;28.03;;;;;;;;;;5009775;28;20220;-72
2021/09/03 04:25:00;;;;;;;52.30;29.07;;;;;;;;;;5009643;28;20282;-72
2021/09/03 04:27:26;;;;;;;50.43;29.40;;;;;;;;;;5008583;28;20212;-73
2021/09/03 04:29:53;;;;;;;46.80;27.83;;;;;;;;;;5007505;28;20245;-73
2021/09/03 04:32:20;;;;;;;54.63;35.08;;;;;;;;;;5008045;28;20448;-73
2021/09/03 04:34:47;;;;;;;54.07;31.13;;;;;;;;;;5009611;28;20667;-73
2021/09/03 04:37:13;;;;;;;51.73;29.17;;;;;;;;;;5006019;28;20216;-73
2021/09/03 04:39:39;;;;;;;52.20;30.17;;;;;;;;;;5007975;28;20327;-73
2021/09/03 04:42:06;;;;;;;56.20;29.07;;;;;;;;;;5005377;28;20213;-74
2021/09/03 04:44:32;;;;;;;49.57;27.70;;;;;;;;;;5005002;28;20215;-74
2021/09/03 04:46:59;;;;;;;49.60;27.90;;;;;;;;;;5009992;28;20267;-74
2021/09/03 04:49:26;;;;;;;50.53;28.53;;;;;;;;;;5006548;28;20266;-74
2021/09/03 04:51:53;;;;;;;50.60;27.20;;;;;;;;;;5003908;28;20215;-74
2021/09/03 04:54:19;;;;;;;51.73;28.73;;;;;;;;;;5008640;28;20736;-74
2021/09/03 04:56:46;;;;;;;51.47;29.13;;;;;;;;;;5004285;28;20217;-74
2021/09/03 04:59:12;;;;;;;50.83;29.57;;;;;;;;;;5004936;28;20235;-74
2021/09/03 05:01:39;;;;;;;48.80;29.17;;;;;;;;;;5007200;28;20255;-74
2021/09/03 05:04:05;;;;;;;49.30;30.30;;;;;;;;;;5006422;28;20236;-74
2021/09/03 05:06:33;;;;;;;56.80;31.33;;;;;;;;;;5006701;28;20224;-74
2021/09/03 05:08:59;;;;;;;54.70;29.10;;;;;;;;;;5005114;28;20836;-74
2021/09/03 05:11:26;;;;;;;51.33;30.47;;;;;;;;;;5007829;28;20251;-74
2021/09/03 05:13:52;;;;;;;56.00;30.73;;;;;;;;;;5003396;28;20238;-74
2021/09/03 05:16:19;;;;;;;57.23;32.07;;;;;;;;;;5006892;28;20262;-74
2021/09/03 05:18:45;;;;;;;52.63;29.23;;;;;;;;;;5005233;28;20299;-74
2021/09/03 05:21:11;;;;;;;47.40;28.30;;;;;;;;;;5003847;28;20306;-74
2021/09/03 05:23:39;;;;;;;51.43;28.63;;;;;;;;;;5007527;28;20282;-75
2021/09/03 05:26:06;;;;;;;53.03;28.00;;;;;;;;;;5007853;28;20223;-74
2021/09/03 05:28:32;;;;;;;49.63;28.53;;;;;;;;;;5006241;28;20200;-74
2021/09/03 05:30:58;;;;;;;46.87;30.10;;;;;;;;;;5003498;28;20717;-74
2021/09/03 05:33:25;;;;;;;49.13;27.57;;;;;;;;;;5012312;28;20219;-74
2021/09/03 05:35:52;;;;;;;47.53;28.73;;;;;;;;;;5010172;28;20289;-74
2021/09/03 05:38:18;;;;;;;45.23;27.80;;;;;;;;;;5009093;28;20301;-74
2021/09/03 05:40:46;;;;;;;43.30;26.13;;;;;;;;;;5010581;28;20290;-74
2021/09/03 05:43:12;;;;;;;44.43;28.17;;;;;;;;;;5010518;28;20212;-74
2021/09/03 05:45:39;;;;;;;47.20;26.80;;;;;;;;;;5010561;28;20270;-74
2021/09/03 05:48:05;;;;;;;39.70;26.87;;;;;;;;;;5009477;28;20266;-74
2021/09/03 05:50:32;;;;;;;42.37;28.30;;;;;;;;;;5012512;28;20278;-74
2021/09/03 05:52:59;;;;;;;39.20;26.50;;;;;;;;;;5007357;28;20216;-74
2021/09/03 05:55:25;;;;;;;43.87;27.47;;;;;;;;;;5009908;28;20261;-74
2021/09/03 05:57:54;;;;;;;41.70;27.53;;;;;;;;;;5009876;28;20244;-74
2021/09/03 06:00:21;;;;;;;37.00;25.87;;;;;;;;;;5009665;28;20996;-74
2021/09/03 06:02:47;;;;;;;38.13;24.10;;;;;;;;;;5007943;28;20253;-74
2021/09/03 06:05:13;;;;;;;37.30;25.20;;;;;;;;;;5009655;28;20238;-74
2021/09/03 06:07:40;;;;;;;35.07;24.70;;;;;;;;;;5008995;28;20291;-74
2021/09/03 06:10:07;;;;;;;34.53;24.13;;;;;;;;;;5007919;28;20237;-74
2021/09/03 06:12:34;;;;;;;36.60;24.47;;;;;;;;;;5009892;28;20221;-74
2021/09/03 06:15:01;;;;;;;40.20;26.27;;;;;;;;;;5008793;28;20314;-74
2021/09/03 06:17:28;;;;;;;34.77;24.07;;;;;;;;;;5009355;28;20226;-74
2021/09/03 06:19:54;;;;;;;34.13;24.80;;;;;;;;;;5009024;28;20644;-74
2021/09/03 06:22:20;;;;;;;34.93;24.57;;;;;;;;;;5008628;28;20269;-74
2021/09/03 06:24:47;;;;;;;38.70;24.30;;;;;;;;;;5009593;28;20230;-74
2021/09/03 06:27:13;;;;;;;29.37;22.60;;;;;;;;;;5008588;28;20291;-74
2021/09/03 06:29:41;;;;;;;33.53;23.47;;;;;;;;;;5008053;28;20219;-74
2021/09/03 06:32:11;;;;;;;32.20;23.87;;;;;;;;;;5007387;28;20603;-74
2021/09/03 06:34:39;;;;;;;28.33;20.97;;;;;;;;;;5007453;28;20224;-74
2021/09/03 06:37:06;;;;;;;29.87;21.20;;;;;;;;;;5006730;28;20312;-74
2021/09/03 06:39:32;;;;;;;33.67;21.80;;;;;;;;;;5006977;28;20276;-74
2021/09/03 06:41:59;;;;;;;32.43;23.03;;;;;;;;;;5007253;28;20631;-74
2021/09/03 06:44:25;;;;;;;32.47;23.40;;;;;;;;;;5006556;28;20282;-74
2021/09/03 06:46:52;;;;;;;28.13;22.67;;;;;;;;;;5010516;28;20227;-74
2021/09/03 06:49:20;;;;;;;28.10;21.13;;;;;;;;;;5006780;28;20621;-74
2021/09/03 06:51:46;;;;;;;29.80;21.93;;;;;;;;;;5007018;28;20268;-73
2021/09/03 06:54:13;;;;;;;27.23;21.93;;;;;;;;;;5006829;28;20231;-73
2021/09/03 06:56:39;;;;;;;27.17;21.30;;;;;;;;;;5008351;28;20619;-74
2021/09/03 06:59:05;;;;;;;27.00;22.37;;;;;;;;;;5009140;28;20240;-74
2021/09/03 07:01:32;;;;;;;28.07;21.97;;;;;;;;;;5011875;28;20252;-74
2021/09/03 07:03:58;;;;;;;25.17;21.13;;;;;;;;;;5007729;28;20226;-73
2021/09/03 07:06:26;;;;;;;29.47;22.73;;;;;;;;;;5006849;28;20800;-74
2021/09/03 07:08:53;;;;;;;34.23;23.57;;;;;;;;;;5006913;28;20274;-73
2021/09/03 07:11:19;;;;;;;25.60;20.30;;;;;;;;;;5006512;28;20222;-74
2021/09/03 07:13:45;;;;;;;26.33;20.53;;;;;;;;;;5008126;28;20214;-74
2021/09/03 07:16:12;;;;;;;25.27;21.23;;;;;;;;;;5006674;28;20420;-74
2021/09/03 07:18:38;;;;;;;25.27;21.40;;;;;;;;;;5006701;28;20239;-74
2021/09/03 07:21:05;;;;;;;25.30;21.37;;;;;;;;;;5006880;28;20221;-74
2021/09/03 07:23:32;;;;;;;26.40;21.03;;;;;;;;;;5007253;28;20237;-74
2021/09/03 07:26:00;;;;;;;24.03;20.27;;;;;;;;;;5007625;28;20234;-73
2021/09/03 07:28:26;;;;;;;26.27;21.40;;;;;;;;;;5007907;28;20238;-74
2021/09/03 07:30:53;;;;;;;25.03;21.20;;;;;;;;;;5007278;28;20209;-74
2021/09/03 07:33:19;;;;;;;26.20;20.73;;;;;;;;;;5006627;28;20223;-73
2021/09/03 07:35:45;;;;;;;26.33;20.93;;;;;;;;;;5007681;28;20251;-73
2021/09/03 07:38:15;;;;;;;28.20;20.93;;;;;;;;;;5005841;28;20317;-73
2021/09/03 07:40:43;;;;;;;29.60;22.07;;;;;;;;;;5008384;28;20212;-74
2021/09/03 07:43:09;;;;;;;28.70;21.70;;;;;;;;;;5007088;28;20558;-74
2021/09/03 07:45:37;;;;;;;28.47;22.43;;;;;;;;;;5006792;28;20220;-74
2021/09/03 07:48:04;;;;;;;28.10;21.90;;;;;;;;;;5008054;28;20217;-74
2021/09/03 07:50:32;;;;;;;24.77;20.53;;;;;;;;;;5006666;28;20643;-74
2021/09/03 07:52:59;;;;;;;25.10;20.23;;;;;;;;;;5006191;28;20204;-74
2021/09/03 07:55:26;;;;;;;24.37;18.73;;;;;;;;;;5006594;28;20267;-74
2021/09/03 07:57:53;;;;;;;24.00;17.73;;;;;;;;;;5007030;28;20263;-74
2021/09/03 08:00:20;;;;;;;20.80;17.17;;;;;;;;;;5007482;28;20241;-74
2021/09/03 08:02:46;;;;;;;21.93;14.40;;;;;;;;;;5005715;28;20239;-74
2021/09/03 08:05:12;;;;;;;19.27;15.33;;;;;;;;;;5006564;28;20216;-74
2021/09/03 08:07:41;;;;;;;19.70;15.10;;;;;;;;;;5006125;28;20319;-74
2021/09/03 08:10:09;;;;;;;20.83;14.50;;;;;;;;;;5009016;28;20234;-74
2021/09/03 08:12:36;;;;;;;18.53;15.03;;;;;;;;;;5005593;28;20248;-74
2021/09/03 08:15:04;;;;;;;19.80;15.03;;;;;;;;;;5006489;28;20290;-74
2021/09/03 08:17:31;;;;;;;20.30;15.33;;;;;;;;;;5008147;28;20283;-73
2021/09/03 08:19:57;;;;;;;19.27;14.80;;;;;;;;;;5006037;28;20270;-74
2021/09/03 08:22:24;;;;;;;19.03;15.07;;;;;;;;;;5007830;28;20220;-74
2021/09/03 08:24:50;;;;;;;18.40;14.03;;;;;;;;;;5005131;28;20242;-74
2021/09/03 08:27:17;;;;;;;24.50;16.30;;;;;;;;;;5003227;28;20308;-74
2021/09/03 08:29:45;;;;;;;19.40;16.13;;;;;;;;;;5005446;28;20268;-73
2021/09/03 08:32:13;;;;;;;20.73;14.97;;;;;;;;;;5006886;28;20216;-73
2021/09/03 08:34:40;;;;;;;17.43;13.97;;;;;;;;;;5009097;28;20724;-74
2021/09/03 08:37:06;;;;;;;20.57;14.37;;;;;;;;;;5007088;28;20226;-74
2021/09/03 08:39:32;;;;;;;23.43;15.57;;;;;;;;;;5005446;28;20243;-74
2021/09/03 08:41:59;;;;;;;21.47;16.30;;;;;;;;;;5006999;28;20633;-74
2021/09/03 08:44:29;;;;;;;20.97;16.67;;;;;;;;;;5008092;28;20248;-74
2021/09/03 08:46:55;;;;;;;20.80;15.90;;;;;;;;;;5007088;28;20369;-73
2021/09/03 08:49:24;;;;;;;24.83;16.70;;;;;;;;;;5006831;28;20217;-73
2021/09/03 08:51:50;;;;;;;21.87;15.30;;;;;;;;;;5006794;28;20271;-73
2021/09/03 08:54:19;;;;;;;19.83;14.87;;;;;;;;;;5007835;28;20574;-73
2021/09/03 08:56:45;;;;;;;17.93;14.93;;;;;;;;;;5005837;28;20217;-74
2021/09/03 08:59:12;;;;;;;18.67;14.90;;;;;;;;;;5005968;28;20276;-74
2021/09/03 09:01:38;;;;;;;20.77;13.83;;;;;;;;;;5007060;28;20310;-72
2021/09/03 09:04:10;;;;;;;18.40;13.07;;;;;;;;;;5006307;28;20213;-74
2021/09/03 09:06:37;;;;;;;16.67;12.10;;;;;;;;;;5008515;28;20347;-75
2021/09/03 09:09:06;;;;;;;19.03;14.17;;;;;;;;;;5009677;28;20559;-76
2021/09/03 09:11:34;;;;;;;21.60;12.73;;;;;;;;;;5011903;28;20222;-76
2021/09/03 09:14:03;;;;;;;17.77;12.80;;;;;;;;;;5008506;28;20232;-76
2021/09/03 09:16:31;;;;;;;19.30;13.13;;;;;;;;;;5010746;28;20212;-75
2021/09/03 09:18:59;;;;;;;17.37;13.70;;;;;;;;;;5009617;28;20327;-75
2021/09/03 09:21:28;;;;;;;16.93;13.73;;;;;;;;;;5012574;28;20218;-75
2021/09/03 09:23:58;;;;;;;20.67;13.13;;;;;;;;;;5010679;28;20279;-75
2021/09/03 09:26:28;;;;;;;24.03;14.63;;;;;;;;;;5010920;28;20214;-75
2021/09/03 09:28:55;;;;;;;18.83;13.67;;;;;;;;;;5008717;28;20209;-75
2021/09/03 09:31:30;;;;;;;20.87;15.17;;;;;;;;;;5006282;28;20229;-75
2021/09/03 09:33:57;;;;;;;16.07;14.10;;;;;;;;;;5006040;28;20213;-75
2021/09/03 09:36:24;;;;;;;17.43;13.03;;;;;;;;;;5006767;28;20552;-75
2021/09/03 09:38:51;;;;;;;20.20;13.70;;;;;;;;;;5007344;28;20226;-74
2021/09/03 09:41:22;;;;;;;20.00;13.37;;;;;;;;;;5007386;28;20247;-74
2021/09/03 09:43:48;;;;;;;19.57;15.07;;;;;;;;;;5009530;28;20317;-74
2021/09/03 09:46:18;;;;;;;22.33;15.20;;;;;;;;;;5008464;28;20214;-73
2021/09/03 09:49:01;;;;;;;22.93;14.60;;;;;;;;;;5007830;28;20336;-73
2021/09/03 09:51:30;;;;;;;18.93;14.43;;;;;;;;;;5009044;28;20206;-73
2021/09/03 09:53:57;;;;;;;20.83;15.13;;;;;;;;;;5005738;28;20269;-73
2021/09/03 09:56:27;;;;;;;22.03;13.83;;;;;;;;;;5008243;28;20268;-73
2021/09/03 09:58:55;;;;;;;23.00;14.60;;;;;;;;;;5007117;28;20773;-73
2021/09/03 10:01:23;;;;;;;19.70;14.13;;;;;;;;;;5004186;28;20273;-73
2021/09/03 10:03:51;;;;;;;20.27;14.93;;;;;;;;;;5006530;28;20253;-73
2021/09/03 10:06:18;;;;;;;21.07;14.93;;;;;;;;;;5008445;28;20280;-73
2021/09/03 10:08:46;;;;;;;21.67;13.50;;;;;;;;;;5007779;28;20233;-73
2021/09/03 10:11:14;;;;;;;17.43;14.27;;;;;;;;;;5007143;28;20316;-73
2021/09/03 10:13:42;;;;;;;15.40;12.90;;;;;;;;;;5006508;28;20220;-73
2021/09/03 10:16:09;;;;;;;22.43;13.23;;;;;;;;;;5007153;28;20293;-73
2021/09/03 10:18:37;;;;;;;20.57;14.57;;;;;;;;;;5008265;28;21717;-73
2021/09/03 10:21:04;;;;;;;20.07;13.73;;;;;;;;;;5006887;28;20251;-73
2021/09/03 10:23:51;;;;;;;20.50;14.20;;;;;;;;;;5007081;28;20662;-73
2021/09/03 10:26:21;;;;;;;21.27;14.43;;;;;;;;;;5007116;28;20218;-73
2021/09/03 10:28:49;;;;;;;21.53;14.43;;;;;;;;;;5005360;28;20321;-73
2021/09/03 10:31:19;;;;;;;18.80;13.43;;;;;;;;;;5007237;28;20215;-73
2021/09/03 10:33:46;;;;;;;16.77;12.90;;;;;;;;;;5008275;28;20264;-73
2021/09/03 10:36:13;;;;;;;15.60;12.97;;;;;;;;;;5005636;28;20221;-73
2021/09/03 10:38:43;;;;;;;19.70;12.97;;;;;;;;;;5006188;28;20692;-73
2021/09/03 10:41:09;;;;;;;18.43;12.83;;;;;;;;;;5008766;28;20227;-73
2021/09/03 10:43:43;;;;;;;14.83;12.03;;;;;;;;;;5008083;28;20272;-72
2021/09/03 10:46:14;;;;;;;17.00;12.53;;;;;;;;;;5005142;28;20687;-72
2021/09/03 10:48:49;;;;;;;20.20;14.50;;;;;;;;;;5007696;28;20297;-72
2021/09/03 10:51:33;;;;;;;15.63;12.60;;;;;;;;;;5005141;28;20239;-73
2021/09/03 10:53:59;;;;;;;21.20;14.03;;;;;;;;;;5007108;28;20239;-72
2021/09/03 10:56:34;;;;;;;17.30;13.43;;;;;;;;;;5005639;28;20789;-75
2021/09/03 10:59:05;;;;;;;20.80;13.10;;;;;;;;;;5005629;28;20219;-75
2021/09/03 11:02:02;;;;;;;14.57;11.93;;;;;;;;;;5006620;28;20257;-74
2021/09/03 11:04:28;;;;;;;17.77;11.87;;;;;;;;;;5004195;28;20618;-74
2021/09/03 11:07:11;;;;;;;18.83;12.07;;;;;;;;;;5006272;28;20287;-74
2021/09/03 11:09:38;;;;;;;18.00;13.23;;;;;;;;;;5006472;28;20228;-76
2021/09/03 11:12:10;;;;;;;16.30;11.90;;;;;;;;;;5005969;28;20211;-74
2021/09/03 11:14:38;;;;;;;16.97;12.13;;;;;;;;;;5008310;28;20795;-75
2021/09/03 11:17:08;;;;;;;18.30;12.80;;;;;;;;;;5005993;28;20221;-74
2021/09/03 11:19:36;;;;;;;17.00;11.40;;;;;;;;;;5005696;28;20278;-76
2021/09/03 11:22:06;;;;;;;14.87;11.40;;;;;;;;;;5005569;28;20229;-75
2021/09/03 11:24:34;;;;;;;16.37;10.77;;;;;;;;;;5003997;28;20237;-76
2021/09/03 11:27:05;;;;;;;17.23;12.13;;;;;;;;;;5005138;28;20221;-76
2021/09/03 11:29:34;;;;;;;16.77;12.07;;;;;;;;;;5004693;28;20278;-75
2021/09/03 11:32:20;;;;;;;15.60;11.63;;;;;;;;;;5006384;28;20290;-75
2021/09/03 11:34:55;;;;;;;13.43;10.60;;;;;;;;;;5006289;28;20221;-76
2021/09/03 11:37:27;;;;;;;18.30;11.70;;;;;;;;;;5005682;28;20271;-74
2021/09/03 11:39:56;;;;;;;18.87;11.80;;;;;;;;;;5005108;28;20329;-76
2021/09/03 11:42:25;;;;;;;15.27;11.50;;;;;;;;;;5006816;28;20224;-77
2021/09/03 11:44:53;;;;;;;17.27;12.23;;;;;;;;;;5006579;28;20631;-74
2021/09/03 11:47:26;;;;;;;12.30;10.70;;;;;;;;;;5006278;28;20229;-75
2021/09/03 11:49:52;;;;;;;14.70;11.13;;;;;;;;;;5004165;28;20372;-75
2021/09/03 11:52:26;;;;;;;13.93;11.10;;;;;;;;;;5006060;28;21442;-76
2021/09/03 11:54:52;;;;;;;13.37;10.73;;;;;;;;;;5005005;28;20326;-75
2021/09/03 11:57:20;;;;;;;15.33;9.90;;;;;;;;;;5004514;28;20214;-76
2021/09/03 11:59:54;;;;;;;14.13;11.87;;;;;;;;;;5006917;28;20573;-76
2021/09/03 12:02:21;;;;;;;16.27;12.47;;;;;;;;;;5004550;28;20248;-75
2021/09/03 12:04:50;;;;;;;17.93;11.87;;;;;;;;;;5005696;28;20217;-76
2021/09/03 12:07:18;;;;;;;16.07;11.70;;;;;;;;;;5003828;28;20730;-77
2021/09/03 12:09:44;;;;;;;13.20;10.93;;;;;;;;;;5005201;28;20326;-76
2021/09/03 12:12:11;;;;;;;15.63;12.20;;;;;;;;;;5006284;28;20661;-76
2021/09/03 12:14:37;;;;;;;15.87;13.50;;;;;;;;;;5006607;28;20249;-76
2021/09/03 12:17:04;;;;;;;22.17;13.10;;;;;;;;;;5004882;28;20208;-75
2021/09/03 12:19:30;;;;;;;17.00;12.07;;;;;;;;;;5006440;28;21162;-75
2021/09/03 12:21:58;;;;;;;18.57;13.20;;;;;;;;;;5006195;28;20234;-75
2021/09/03 12:24:25;;;;;;;17.40;13.50;;;;;;;;;;5006225;28;20629;-75
2021/09/03 12:26:56;;;;;;;18.50;12.67;;;;;;;;;;5004182;28;20248;-75
2021/09/03 12:29:24;;;;;;;16.70;11.77;;;;;;;;;;5003842;28;20230;-75
2021/09/03 12:31:52;;;;;;;18.80;12.23;;;;;;;;;;5003917;28;20217;-75
2021/09/03 12:34:18;;;;;;;14.47;11.27;;;;;;;;;;5005948;28;20279;-75
2021/09/03 12:36:46;;;;;;;18.30;12.70;;;;;;;;;;5007612;28;20681;-75
2021/09/03 12:39:21;;;;;;;15.60;11.90;;;;;;;;;;5004982;28;20234;-75
2021/09/03 12:41:48;;;;;;;15.83;11.83;;;;;;;;;;5007749;28;20235;-75
2021/09/03 12:44:21;;;;;;;13.87;11.43;;;;;;;;;;5011875;28;20218;-75
2021/09/03 12:46:50;;;;;;;17.83;12.10;;;;;;;;;;5008169;28;20264;-75
2021/09/03 12:49:20;;;;;;;17.30;11.97;;;;;;;;;;5009839;28;20279;-75
2021/09/03 12:51:48;;;;;;;17.70;11.93;;;;;;;;;;5008152;28;20249;-75
2021/09/03 12:54:17;;;;;;;18.27;12.43;;;;;;;;;;5009646;28;20234;-75
2021/09/03 12:56:45;;;;;;;15.30;11.47;;;;;;;;;;5009386;28;20214;-75
2021/09/03 12:59:11;;;;;;;16.77;11.40;;;;;;;;;;5011165;28;20872;-75
2021/09/03 13:01:38;;;;;;;16.90;12.10;;;;;;;;;;5008415;28;20461;-74
2021/09/03 13:04:14;;;;;;;14.33;11.03;;;;;;;;;;5007051;28;20606;-74
2021/09/03 13:06:45;;;;;;;17.63;12.57;;;;;;;;;;5009167;28;20241;-75
2021/09/03 13:09:11;;;;;;;15.93;11.20;;;;;;;;;;5009213;28;20234;-74
2021/09/03 13:11:39;;;;;;;16.30;12.53;;;;;;;;;;5004067;28;20810;-74
2021/09/03 13:14:06;;;;;;;14.73;10.63;;;;;;;;;;5001464;28;20226;-74
2021/09/03 13:16:36;;;;;;;15.93;11.53;;;;;;;;;;5006719;28;20215;-74
2021/09/03 13:19:03;;;;;;;15.73;11.30;;;;;;;;;;5008465;28;20222;-75
2021/09/03 13:21:29;;;;;;;14.57;12.17;;;;;;;;;;5009182;28;20368;-75
2021/09/03 13:23:56;;;;;;;17.90;11.97;;;;;;;;;;5009672;28;20720;-75
2021/09/03 13:26:22;;;;;;;15.63;11.10;;;;;;;;;;5006465;28;20218;-76
2021/09/03 13:28:50;;;;;;;14.70;11.17;;;;;;;;;;5008328;28;20215;-75
2021/09/03 13:31:20;;;;;;;16.23;12.23;;;;;;;;;;5007696;28;20226;-76
2021/09/03 13:33:46;;;;;;;17.23;12.27;;;;;;;;;;5006532;28;20301;-75
2021/09/03 13:36:14;;;;;;;18.10;11.97;;;;;;;;;;5007895;28;20587;-75
2021/09/03 13:38:40;;;;;;;14.00;11.10;;;;;;;;;;5009780;28;20699;-75
2021/09/03 13:41:06;;;;;;;21.07;12.57;;;;;;;;;;5009265;28;20602;-75
2021/09/03 13:43:33;;;;;;;18.77;12.90;;;;;;;;;;5008269;28;20233;-76
2021/09/03 13:46:00;;;;;;;17.60;12.93;;;;;;;;;;5005126;28;20674;-75
2021/09/03 13:48:27;;;;;;;22.23;12.87;;;;;;;;;;5009687;28;20216;-75
2021/09/03 13:50:53;;;;;;;19.57;13.07;;;;;;;;;;5006519;28;20265;-75
2021/09/03 13:53:20;;;;;;;16.53;12.53;;;;;;;;;;5007171;28;20831;-75
2021/09/03 13:55:46;;;;;;;22.97;14.57;;;;;;;;;;5009226;28;20271;-75
2021/09/03 13:58:13;;;;;;;18.37;12.70;;;;;;;;;;4985697;28;20262;-76
2021/09/03 14:00:39;;;;;;;20.53;14.13;;;;;;;;;;5008822;28;20238;-76
2021/09/03 14:03:07;;;;;;;20.40;13.60;;;;;;;;;;5009142;28;20286;-75
2021/09/03 14:05:33;;;;;;;23.67;14.03;;;;;;;;;;5006337;28;20291;-74
2021/09/03 14:08:00;;;;;;;18.03;13.60;;;;;;;;;;5006704;28;20259;-75
2021/09/03 14:10:26;;;;;;;15.40;11.87;;;;;;;;;;5007079;28;20223;-75
2021/09/03 14:12:52;;;;;;;18.63;13.77;;;;;;;;;;5006703;28;20260;-75
2021/09/03 14:15:19;;;;;;;18.50;13.30;;;;;;;;;;5006721;28;20257;-75
2021/09/03 14:17:45;;;;;;;25.03;13.00;;;;;;;;;;5005661;28;20218;-75